sensor_id;sensor_type;location;lat;lon;timestamp;pressure;altitude;pressure_sealevel;temperature;humidity
38852;BME280;24605;50.092;9.182;2022-11-20T00:00:03;97431.38;;;0.88;100.00
38852;BME280;24605;50.092;9.182;2022-11-20T00:02:29;97436.28;;;0.91;100.00
38852;BME280;24605;50.092;9.182;2022-11-20T00:04:56;97424.81;;;0.84;100.00
38852;BME280;24605;50.092;9.182;2022-11-20T00:07:24;97429.53;;;0.78;100.00
38852;BME280;24605;50.092;9.182;2022-11-20T00:09:50;97418.72;;;0.85;100.00
38852;BME280;24605;50.092;9.182;2022-11-20T00:12:17;97437.47;;;0.87;100.00
38852;BME280;24605;50.092;9.182;2022-11-20T00:14:43;97437.56;;;0.85;100.00
38852;BME280;24605;50.092;9.182;2022-11-20T00:17:10;97432.31;;;0.87;100.00
38852;BME280;24605;50.092;9.182;2022-11-20T00:19:36;97434.19;;;0.73;100.00
38852;BME280;24605;50.092;9.182;2022-11-20T00:22:02;97426.44;;;0.85;100.00
38852;BME280;24605;50.092;9.182;2022-11-20T00:24:30;97425.16;;;0.90;100.00
38852;BME280;24605;50.092;9.182;2022-11-20T00:26:57;97375.63;;;0.53;100.00
38852;BME280;24605;50.092;9.182;2022-11-20T00:29:23;97426.16;;;0.99;100.00
38852;BME280;24605;50.092;9.182;2022-11-20T00:31:49;97426.81;;;0.80;100.00
38852;BME280;24605;50.092;9.182;2022-11-20T00:34:16;97411.47;;;0.78;100.00
38852;BME280;24605;50.092;9.182;2022-11-20T00:36:42;97427.19;;;0.64;100.00
38852;BME280;24605;50.092;9.182;2022-11-20T00:39:09;97416.63;;;0.67;100.00
38852;BME280;24605;50.092;9.182;2022-11-20T00:41:37;97419.66;;;0.72;100.00
38852;BME280;24605;50.092;9.182;2022-11-20T00:44:03;97417.91;;;0.73;100.00
38852;BME280;24605;50.092;9.182;2022-11-20T00:46:30;97404.19;;;0.72;100.00
38852;BME280;24605;50.092;9.182;2022-11-20T00:48:56;97404.88;;;0.74;100.00
38852;BME280;24605;50.092;9.182;2022-11-20T00:51:25;97408.19;;;0.76;100.00
38852;BME280;24605;50.092;9.182;2022-11-20T00:53:51;97391.66;;;0.68;100.00
38852;BME280;24605;50.092;9.182;2022-11-20T00:56:19;97403.94;;;0.75;100.00
38852;BME280;24605;50.092;9.182;2022-11-20T00:58:48;97404.31;;;0.71;100.00
38852;BME280;24605;50.092;9.182;2022-11-20T01:01:16;97395.41;;;0.64;100.00
38852;BME280;24605;50.092;9.182;2022-11-20T01:03:45;97410.75;;;0.76;100.00
38852;BME280;24605;50.092;9.182;2022-11-20T01:06:14;97408.25;;;0.86;100.00
38852;BME280;24605;50.092;9.182;2022-11-20T01:08:41;97418.59;;;0.86;100.00
38852;BME280;24605;50.092;9.182;2022-11-20T01:11:09;97418.13;;;0.92;100.00
38852;BME280;24605;50.092;9.182;2022-11-20T01:13:36;97409.53;;;1.03;100.00
38852;BME280;24605;50.092;9.182;2022-11-20T01:16:05;97413.06;;;0.91;100.00
38852;BME280;24605;50.092;9.182;2022-11-20T01:18:32;97408.16;;;0.88;100.00
38852;BME280;24605;50.092;9.182;2022-11-20T01:21:00;97412.84;;;0.83;100.00
38852;BME280;24605;50.092;9.182;2022-11-20T01:23:30;97411.97;;;1.05;100.00
38852;BME280;24605;50.092;9.182;2022-11-20T01:25:59;97410.44;;;1.14;100.00
38852;BME280;24605;50.092;9.182;2022-11-20T01:28:26;97406.16;;;0.91;100.00
38852;BME280;24605;50.092;9.182;2022-11-20T01:30:52;97412.84;;;0.83;100.00
38852;BME280;24605;50.092;9.182;2022-11-20T01:33:20;97412.13;;;0.81;100.00
38852;BME280;24605;50.092;9.182;2022-11-20T01:35:46;97411.69;;;0.87;100.00
38852;BME280;24605;50.092;9.182;2022-11-20T01:38:14;97407.41;;;0.97;100.00
38852;BME280;24605;50.092;9.182;2022-11-20T01:40:41;97405.44;;;1.01;100.00
38852;BME280;24605;50.092;9.182;2022-11-20T01:43:13;97363.66;;;0.96;100.00
38852;BME280;24605;50.092;9.182;2022-11-20T01:46:13;97399.19;;;1.03;100.00
38852;BME280;24605;50.092;9.182;2022-11-20T01:48:46;97394.91;;;0.92;100.00
38852;BME280;24605;50.092;9.182;2022-11-20T01:51:20;97388.25;;;0.78;100.00
38852;BME280;24605;50.092;9.182;2022-11-20T01:53:47;97338.13;;;0.49;100.00
38852;BME280;24605;50.092;9.182;2022-11-20T01:56:14;97388.66;;;0.95;100.00
38852;BME280;24605;50.092;9.182;2022-11-20T01:58:44;97389.19;;;0.77;100.00
38852;BME280;24605;50.092;9.182;2022-11-20T02:01:13;97397.22;;;0.96;100.00
38852;BME280;24605;50.092;9.182;2022-11-20T02:03:42;97386.81;;;0.86;100.00
38852;BME280;24605;50.092;9.182;2022-11-20T02:06:12;97391.47;;;0.92;100.00
38852;BME280;24605;50.092;9.182;2022-11-20T02:08:40;97388.69;;;0.72;100.00
38852;BME280;24605;50.092;9.182;2022-11-20T02:11:07;97378.78;;;0.56;100.00
38852;BME280;24605;50.092;9.182;2022-11-20T02:13:33;97387.91;;;0.72;100.00
38852;BME280;24605;50.092;9.182;2022-11-20T02:16:11;97394.06;;;0.81;100.00
38852;BME280;24605;50.092;9.182;2022-11-20T02:18:39;97395.41;;;0.75;100.00
38852;BME280;24605;50.092;9.182;2022-11-20T02:21:13;97393.50;;;0.77;100.00
38852;BME280;24605;50.092;9.182;2022-11-20T02:23:55;97366.91;;;0.65;100.00
38852;BME280;24605;50.092;9.182;2022-11-20T02:26:23;97375.69;;;1.06;100.00
38852;BME280;24605;50.092;9.182;2022-11-20T02:28:52;97365.66;;;0.92;100.00
38852;BME280;24605;50.092;9.182;2022-11-20T02:31:19;97374.56;;;0.99;100.00
38852;BME280;24605;50.092;9.182;2022-11-20T02:33:45;97370.41;;;0.75;100.00
38852;BME280;24605;50.092;9.182;2022-11-20T02:36:14;97379.44;;;0.81;100.00
38852;BME280;24605;50.092;9.182;2022-11-20T02:38:43;97376.56;;;0.96;100.00
38852;BME280;24605;50.092;9.182;2022-11-20T02:41:11;97383.38;;;0.97;100.00
38852;BME280;24605;50.092;9.182;2022-11-20T02:43:37;97379.91;;;1.07;100.00
38852;BME280;24605;50.092;9.182;2022-11-20T02:46:07;97384.41;;;1.05;100.00
38852;BME280;24605;50.092;9.182;2022-11-20T02:48:34;97378.06;;;0.98;100.00
38852;BME280;24605;50.092;9.182;2022-11-20T02:51:00;97371.19;;;0.87;100.00
38852;BME280;24605;50.092;9.182;2022-11-20T02:53:27;97367.09;;;0.96;100.00
38852;BME280;24605;50.092;9.182;2022-11-20T02:55:53;97369.59;;;1.07;100.00
38852;BME280;24605;50.092;9.182;2022-11-20T02:58:21;97356.72;;;0.75;100.00
38852;BME280;24605;50.092;9.182;2022-11-20T03:00:48;97360.75;;;0.89;100.00
38852;BME280;24605;50.092;9.182;2022-11-20T03:03:14;97367.09;;;0.96;100.00
38852;BME280;24605;50.092;9.182;2022-11-20T03:05:41;97369.66;;;0.96;100.00
38852;BME280;24605;50.092;9.182;2022-11-20T03:08:07;97373.44;;;1.13;100.00
38852;BME280;24605;50.092;9.182;2022-11-20T03:10:33;97371.25;;;1.08;100.00
38852;BME280;24605;50.092;9.182;2022-11-20T03:13:00;97361.66;;;0.99;100.00
38852;BME280;24605;50.092;9.182;2022-11-20T03:15:27;97359.91;;;1.00;100.00
38852;BME280;24605;50.092;9.182;2022-11-20T03:17:54;97356.78;;;0.85;100.00
38852;BME280;24605;50.092;9.182;2022-11-20T03:20:21;97356.59;;;1.09;100.00
38852;BME280;24605;50.092;9.182;2022-11-20T03:22:47;97352.19;;;0.88;100.00
38852;BME280;24605;50.092;9.182;2022-11-20T03:25:14;97345.56;;;1.07;100.00
38852;BME280;24605;50.092;9.182;2022-11-20T03:27:41;97354.00;;;1.09;100.00
38852;BME280;24605;50.092;9.182;2022-11-20T03:30:08;97351.66;;;1.06;100.00
38852;BME280;24605;50.092;9.182;2022-11-20T03:32:36;97347.38;;;0.95;100.00
38852;BME280;24605;50.092;9.182;2022-11-20T03:35:03;97356.09;;;1.15;100.00
38852;BME280;24605;50.092;9.182;2022-11-20T03:37:31;97358.63;;;1.27;100.00
38852;BME280;24605;50.092;9.182;2022-11-20T03:39:57;97358.91;;;1.12;100.00
38852;BME280;24605;50.092;9.182;2022-11-20T03:42:24;97365.63;;;1.03;100.00
38852;BME280;24605;50.092;9.182;2022-11-20T03:45:08;97360.72;;;1.00;100.00
38852;BME280;24605;50.092;9.182;2022-11-20T03:47:36;97322.84;;;0.68;100.00
38852;BME280;24605;50.092;9.182;2022-11-20T03:50:03;97359.38;;;0.85;100.00
38852;BME280;24605;50.092;9.182;2022-11-20T03:52:30;97364.72;;;0.93;100.00
38852;BME280;24605;50.092;9.182;2022-11-20T03:54:56;97361.19;;;1.05;100.00
38852;BME280;24605;50.092;9.182;2022-11-20T03:57:22;97354.38;;;1.04;100.00
38852;BME280;24605;50.092;9.182;2022-11-20T03:59:49;97350.59;;;1.08;100.00
38852;BME280;24605;50.092;9.182;2022-11-20T04:02:15;97352.94;;;1.12;100.00
38852;BME280;24605;50.092;9.182;2022-11-20T04:04:43;97353.69;;;1.02;100.00
38852;BME280;24605;50.092;9.182;2022-11-20T04:07:10;97353.88;;;1.11;100.00
38852;BME280;24605;50.092;9.182;2022-11-20T04:09:36;97344.91;;;1.15;100.00
38852;BME280;24605;50.092;9.182;2022-11-20T04:12:03;97349.25;;;0.93;100.00
38852;BME280;24605;50.092;9.182;2022-11-20T04:14:30;97353.81;;;1.01;100.00
38852;BME280;24605;50.092;9.182;2022-11-20T04:16:56;97348.72;;;0.78;100.00
38852;BME280;24605;50.092;9.182;2022-11-20T04:19:23;97356.84;;;0.94;100.00
38852;BME280;24605;50.092;9.182;2022-11-20T04:21:50;97351.22;;;1.01;100.00
38852;BME280;24605;50.092;9.182;2022-11-20T04:24:17;97352.41;;;0.97;100.00
38852;BME280;24605;50.092;9.182;2022-11-20T04:26:43;97353.09;;;0.99;100.00
38852;BME280;24605;50.092;9.182;2022-11-20T04:29:10;97357.56;;;0.97;100.00
38852;BME280;24605;50.092;9.182;2022-11-20T04:31:37;97343.84;;;0.96;100.00
38852;BME280;24605;50.092;9.182;2022-11-20T04:34:06;97347.00;;;1.00;100.00
38852;BME280;24605;50.092;9.182;2022-11-20T04:36:33;97345.41;;;0.87;100.00
38852;BME280;24605;50.092;9.182;2022-11-20T04:39:04;97351.53;;;1.07;100.00
38852;BME280;24605;50.092;9.182;2022-11-20T04:41:32;97352.56;;;1.16;100.00
38852;BME280;24605;50.092;9.182;2022-11-20T04:44:00;97349.31;;;1.03;100.00
38852;BME280;24605;50.092;9.182;2022-11-20T04:46:29;97337.34;;;1.02;100.00
38852;BME280;24605;50.092;9.182;2022-11-20T04:48:56;97331.19;;;0.93;100.00
38852;BME280;24605;50.092;9.182;2022-11-20T04:51:23;97332.19;;;1.02;100.00
38852;BME280;24605;50.092;9.182;2022-11-20T04:53:49;97339.75;;;1.15;100.00
38852;BME280;24605;50.092;9.182;2022-11-20T04:56:17;97329.91;;;1.20;100.00
38852;BME280;24605;50.092;9.182;2022-11-20T04:58:44;97323.66;;;1.22;100.00
38852;BME280;24605;50.092;9.182;2022-11-20T05:01:12;97333.34;;;1.09;100.00
38852;BME280;24605;50.092;9.182;2022-11-20T05:03:39;97337.41;;;1.23;100.00
38852;BME280;24605;50.092;9.182;2022-11-20T05:06:07;97340.84;;;1.12;100.00
38852;BME280;24605;50.092;9.182;2022-11-20T05:08:33;97318.84;;;0.97;100.00
38852;BME280;24605;50.092;9.182;2022-11-20T05:11:01;97303.78;;;0.81;100.00
38852;BME280;24605;50.092;9.182;2022-11-20T05:13:29;97319.03;;;1.05;100.00
38852;BME280;24605;50.092;9.182;2022-11-20T05:16:01;97305.16;;;0.96;100.00
38852;BME280;24605;50.092;9.182;2022-11-20T05:18:27;97322.19;;;1.08;100.00
38852;BME280;24605;50.092;9.182;2022-11-20T05:20:55;97322.09;;;1.10;100.00
38852;BME280;24605;50.092;9.182;2022-11-20T05:23:21;97327.56;;;1.17;100.00
38852;BME280;24605;50.092;9.182;2022-11-20T05:25:48;97336.81;;;1.19;100.00
38852;BME280;24605;50.092;9.182;2022-11-20T05:28:14;97325.09;;;1.15;100.00
38852;BME280;24605;50.092;9.182;2022-11-20T05:30:42;97320.13;;;1.02;100.00
38852;BME280;24605;50.092;9.182;2022-11-20T05:33:08;97312.06;;;1.17;100.00
38852;BME280;24605;50.092;9.182;2022-11-20T05:35:35;97256.41;;;0.82;100.00
38852;BME280;24605;50.092;9.182;2022-11-20T05:38:02;97315.97;;;1.11;100.00
38852;BME280;24605;50.092;9.182;2022-11-20T05:40:28;97318.69;;;1.31;100.00
38852;BME280;24605;50.092;9.182;2022-11-20T05:42:54;97320.38;;;1.41;100.00
38852;BME280;24605;50.092;9.182;2022-11-20T05:45:21;97316.00;;;1.32;100.00
38852;BME280;24605;50.092;9.182;2022-11-20T05:47:49;97315.72;;;1.35;100.00
38852;BME280;24605;50.092;9.182;2022-11-20T05:50:15;97321.22;;;1.42;100.00
38852;BME280;24605;50.092;9.182;2022-11-20T05:52:42;97306.28;;;1.24;100.00
38852;BME280;24605;50.092;9.182;2022-11-20T05:55:08;97322.66;;;1.35;100.00
38852;BME280;24605;50.092;9.182;2022-11-20T05:57:35;97328.31;;;1.29;100.00
38852;BME280;24605;50.092;9.182;2022-11-20T06:00:02;97323.03;;;1.30;100.00
38852;BME280;24605;50.092;9.182;2022-11-20T06:02:29;97322.63;;;0.92;100.00
38852;BME280;24605;50.092;9.182;2022-11-20T06:04:56;97323.66;;;1.01;100.00
38852;BME280;24605;50.092;9.182;2022-11-20T06:07:23;97314.84;;;1.25;100.00
38852;BME280;24605;50.092;9.182;2022-11-20T06:09:49;97317.69;;;1.22;100.00
38852;BME280;24605;50.092;9.182;2022-11-20T06:12:16;97308.44;;;1.40;100.00
38852;BME280;24605;50.092;9.182;2022-11-20T06:14:42;97312.72;;;1.30;100.00
38852;BME280;24605;50.092;9.182;2022-11-20T06:17:09;97318.75;;;1.40;100.00
38852;BME280;24605;50.092;9.182;2022-11-20T06:19:35;97327.94;;;1.33;100.00
38852;BME280;24605;50.092;9.182;2022-11-20T06:22:03;97331.72;;;1.29;100.00
38852;BME280;24605;50.092;9.182;2022-11-20T06:24:29;97331.59;;;1.31;100.00
38852;BME280;24605;50.092;9.182;2022-11-20T06:26:56;97320.28;;;1.22;100.00
38852;BME280;24605;50.092;9.182;2022-11-20T06:29:22;97326.63;;;1.18;100.00
38852;BME280;24605;50.092;9.182;2022-11-20T06:31:49;97300.41;;;1.22;100.00
38852;BME280;24605;50.092;9.182;2022-11-20T06:34:15;97333.28;;;1.20;100.00
38852;BME280;24605;50.092;9.182;2022-11-20T06:36:42;97328.81;;;1.44;100.00
38852;BME280;24605;50.092;9.182;2022-11-20T06:39:09;97327.19;;;1.43;100.00
38852;BME280;24605;50.092;9.182;2022-11-20T06:41:36;97332.97;;;1.56;100.00
38852;BME280;24605;50.092;9.182;2022-11-20T06:44:03;97335.00;;;1.31;100.00
38852;BME280;24605;50.092;9.182;2022-11-20T06:46:30;97330.03;;;1.39;100.00
38852;BME280;24605;50.092;9.182;2022-11-20T06:48:57;97339.16;;;1.44;100.00
38852;BME280;24605;50.092;9.182;2022-11-20T06:51:24;97353.84;;;1.43;100.00
38852;BME280;24605;50.092;9.182;2022-11-20T06:53:50;97341.31;;;1.38;100.00
38852;BME280;24605;50.092;9.182;2022-11-20T06:56:18;97343.19;;;1.36;100.00
38852;BME280;24605;50.092;9.182;2022-11-20T06:58:45;97345.91;;;1.35;100.00
38852;BME280;24605;50.092;9.182;2022-11-20T07:01:12;97351.69;;;1.48;100.00
38852;BME280;24605;50.092;9.182;2022-11-20T07:03:39;97341.63;;;1.45;100.00
38852;BME280;24605;50.092;9.182;2022-11-20T07:06:07;97333.38;;;1.30;100.00
38852;BME280;24605;50.092;9.182;2022-11-20T07:08:34;97322.97;;;1.20;100.00
38852;BME280;24605;50.092;9.182;2022-11-20T07:11:03;97329.28;;;1.28;100.00
38852;BME280;24605;50.092;9.182;2022-11-20T07:13:32;97337.84;;;1.28;100.00
38852;BME280;24605;50.092;9.182;2022-11-20T07:15:59;97343.00;;;1.49;100.00
38852;BME280;24605;50.092;9.182;2022-11-20T07:18:26;97338.63;;;1.71;100.00
38852;BME280;24605;50.092;9.182;2022-11-20T07:20:52;97338.22;;;1.45;100.00
38852;BME280;24605;50.092;9.182;2022-11-20T07:23:19;97337.28;;;1.46;100.00
38852;BME280;24605;50.092;9.182;2022-11-20T07:25:45;97331.41;;;1.44;100.00
38852;BME280;24605;50.092;9.182;2022-11-20T07:28:12;97337.28;;;1.46;100.00
38852;BME280;24605;50.092;9.182;2022-11-20T07:30:40;97347.81;;;1.64;100.00
38852;BME280;24605;50.092;9.182;2022-11-20T07:33:06;97349.38;;;1.66;100.00
38852;BME280;24605;50.092;9.182;2022-11-20T07:35:33;97352.69;;;1.57;100.00
38852;BME280;24605;50.092;9.182;2022-11-20T07:37:59;97351.31;;;1.53;100.00
38852;BME280;24605;50.092;9.182;2022-11-20T07:40:27;97347.28;;;1.39;100.00
38852;BME280;24605;50.092;9.182;2022-11-20T07:42:55;97333.03;;;1.45;100.00
38852;BME280;24605;50.092;9.182;2022-11-20T07:45:23;97348.03;;;1.51;100.00
38852;BME280;24605;50.092;9.182;2022-11-20T07:47:51;97338.00;;;1.58;100.00
38852;BME280;24605;50.092;9.182;2022-11-20T07:50:18;97335.50;;;1.25;100.00
38852;BME280;24605;50.092;9.182;2022-11-20T07:52:45;97329.75;;;1.21;100.00
38852;BME280;24605;50.092;9.182;2022-11-20T07:55:12;97317.38;;;1.36;100.00
38852;BME280;24605;50.092;9.182;2022-11-20T07:57:39;97341.41;;;1.37;100.00
38852;BME280;24605;50.092;9.182;2022-11-20T08:00:07;97326.25;;;1.44;100.00
38852;BME280;24605;50.092;9.182;2022-11-20T08:02:36;97336.06;;;1.71;100.00
38852;BME280;24605;50.092;9.182;2022-11-20T08:05:05;97342.59;;;1.75;100.00
38852;BME280;24605;50.092;9.182;2022-11-20T08:07:35;97326.00;;;1.78;100.00
38852;BME280;24605;50.092;9.182;2022-11-20T08:10:02;97327.06;;;1.65;100.00
38852;BME280;24605;50.092;9.182;2022-11-20T08:12:28;97349.00;;;1.81;100.00
38852;BME280;24605;50.092;9.182;2022-11-20T08:15:13;97352.53;;;1.80;100.00
38852;BME280;24605;50.092;9.182;2022-11-20T08:17:39;97360.59;;;1.86;100.00
38852;BME280;24605;50.092;9.182;2022-11-20T08:20:08;97351.00;;;1.67;100.00
38852;BME280;24605;50.092;9.182;2022-11-20T08:22:34;97364.94;;;1.86;100.00
38852;BME280;24605;50.092;9.182;2022-11-20T08:25:01;97364.72;;;1.68;100.00
38852;BME280;24605;50.092;9.182;2022-11-20T08:27:27;97361.03;;;1.39;100.00
38852;BME280;24605;50.092;9.182;2022-11-20T08:29:54;97365.22;;;1.83;100.00
38852;BME280;24605;50.092;9.182;2022-11-20T08:32:20;97364.63;;;2.00;100.00
38852;BME280;24605;50.092;9.182;2022-11-20T08:34:47;97366.16;;;2.13;100.00
38852;BME280;24605;50.092;9.182;2022-11-20T08:37:14;97365.59;;;2.09;100.00
38852;BME280;24605;50.092;9.182;2022-11-20T08:39:41;97366.22;;;2.23;100.00
38852;BME280;24605;50.092;9.182;2022-11-20T08:42:08;97368.66;;;2.24;100.00
38852;BME280;24605;50.092;9.182;2022-11-20T08:44:34;97364.78;;;2.09;100.00
38852;BME280;24605;50.092;9.182;2022-11-20T08:47:00;97330.19;;;1.69;100.00
38852;BME280;24605;50.092;9.182;2022-11-20T08:49:27;97364.19;;;1.95;100.00
38852;BME280;24605;50.092;9.182;2022-11-20T08:51:53;97375.06;;;2.20;100.00
38852;BME280;24605;50.092;9.182;2022-11-20T08:54:21;97376.25;;;2.16;100.00
38852;BME280;24605;50.092;9.182;2022-11-20T08:56:48;97377.72;;;2.09;100.00
38852;BME280;24605;50.092;9.182;2022-11-20T08:59:14;97381.06;;;1.99;100.00
38852;BME280;24605;50.092;9.182;2022-11-20T09:01:41;97387.28;;;2.18;100.00
38852;BME280;24605;50.092;9.182;2022-11-20T09:04:07;97382.72;;;2.00;100.00
38852;BME280;24605;50.092;9.182;2022-11-20T09:06:34;97378.97;;;2.14;100.00
38852;BME280;24605;50.092;9.182;2022-11-20T09:09:00;97387.78;;;2.12;100.00
38852;BME280;24605;50.092;9.182;2022-11-20T09:11:28;97392.00;;;2.13;100.00
38852;BME280;24605;50.092;9.182;2022-11-20T09:13:54;97392.78;;;2.03;100.00
38852;BME280;24605;50.092;9.182;2022-11-20T09:16:21;97387.13;;;2.10;100.00
38852;BME280;24605;50.092;9.182;2022-11-20T09:18:49;97386.97;;;2.11;100.00
38852;BME280;24605;50.092;9.182;2022-11-20T09:21:16;97380.38;;;1.97;100.00
38852;BME280;24605;50.092;9.182;2022-11-20T09:23:42;97396.59;;;1.99;100.00
38852;BME280;24605;50.092;9.182;2022-11-20T09:26:10;97396.38;;;2.12;100.00
38852;BME280;24605;50.092;9.182;2022-11-20T09:28:39;97399.69;;;2.24;100.00
38852;BME280;24605;50.092;9.182;2022-11-20T09:31:06;97386.03;;;2.12;100.00
38852;BME280;24605;50.092;9.182;2022-11-20T09:33:32;97388.75;;;2.11;100.00
38852;BME280;24605;50.092;9.182;2022-11-20T09:35:59;97382.81;;;2.20;100.00
38852;BME280;24605;50.092;9.182;2022-11-20T09:38:25;97377.44;;;2.43;100.00
38852;BME280;24605;50.092;9.182;2022-11-20T09:40:56;97381.69;;;2.54;100.00
38852;BME280;24605;50.092;9.182;2022-11-20T09:43:29;97372.50;;;2.40;100.00
38852;BME280;24605;50.092;9.182;2022-11-20T09:46:06;97390.75;;;2.38;100.00
38852;BME280;24605;50.092;9.182;2022-11-20T09:48:42;97392.47;;;2.69;100.00
38852;BME280;24605;50.092;9.182;2022-11-20T09:51:20;97390.88;;;2.77;100.00
38852;BME280;24605;50.092;9.182;2022-11-20T09:53:59;97391.56;;;2.39;100.00
38852;BME280;24605;50.092;9.182;2022-11-20T09:56:28;97391.72;;;2.37;100.00
38852;BME280;24605;50.092;9.182;2022-11-20T09:58:57;97390.34;;;2.33;100.00
38852;BME280;24605;50.092;9.182;2022-11-20T10:01:30;97379.59;;;2.38;100.00
38852;BME280;24605;50.092;9.182;2022-11-20T10:04:00;97383.69;;;2.40;100.00
38852;BME280;24605;50.092;9.182;2022-11-20T10:06:31;97377.75;;;2.59;100.00
38852;BME280;24605;50.092;9.182;2022-11-20T10:09:07;97377.34;;;2.64;100.00
38852;BME280;24605;50.092;9.182;2022-11-20T10:11:48;97351.47;;;2.54;100.00
38852;BME280;24605;50.092;9.182;2022-11-20T10:14:23;97352.72;;;2.70;100.00
38852;BME280;24605;50.092;9.182;2022-11-20T10:17:02;97374.50;;;2.77;100.00
38852;BME280;24605;50.092;9.182;2022-11-20T10:19:41;97368.25;;;2.79;100.00
38852;BME280;24605;50.092;9.182;2022-11-20T10:22:21;97354.75;;;2.76;100.00
38852;BME280;24605;50.092;9.182;2022-11-20T10:24:56;97370.81;;;2.70;100.00
38852;BME280;24605;50.092;9.182;2022-11-20T10:27:41;97363.88;;;2.70;100.00
38852;BME280;24605;50.092;9.182;2022-11-20T10:30:14;97351.72;;;2.61;100.00
38852;BME280;24605;50.092;9.182;2022-11-20T10:32:46;97359.69;;;3.08;100.00
38852;BME280;24605;50.092;9.182;2022-11-20T10:35:20;97359.28;;;2.93;100.00
38852;BME280;24605;50.092;9.182;2022-11-20T10:37:51;97358.06;;;2.97;100.00
38852;BME280;24605;50.092;9.182;2022-11-20T10:40:25;97353.28;;;3.22;100.00
38852;BME280;24605;50.092;9.182;2022-11-20T10:42:56;97350.44;;;3.25;100.00
38852;BME280;24605;50.092;9.182;2022-11-20T10:45:36;97366.94;;;3.24;100.00
38852;BME280;24605;50.092;9.182;2022-11-20T10:48:15;97356.28;;;2.98;100.00
38852;BME280;24605;50.092;9.182;2022-11-20T10:50:55;97335.72;;;2.96;100.00
38852;BME280;24605;50.092;9.182;2022-11-20T10:53:37;97351.91;;;2.89;100.00
38852;BME280;24605;50.092;9.182;2022-11-20T10:56:14;97343.19;;;3.19;100.00
38852;BME280;24605;50.092;9.182;2022-11-20T10:58:45;97349.06;;;3.11;100.00
38852;BME280;24605;50.092;9.182;2022-11-20T11:01:17;97349.59;;;3.05;100.00
38852;BME280;24605;50.092;9.182;2022-11-20T11:03:45;97343.75;;;3.03;100.00
38852;BME280;24605;50.092;9.182;2022-11-20T11:06:17;97333.66;;;2.80;100.00
38852;BME280;24605;50.092;9.182;2022-11-20T11:08:48;97328.19;;;2.74;100.00
38852;BME280;24605;50.092;9.182;2022-11-20T11:11:21;97354.34;;;2.80;100.00
38852;BME280;24605;50.092;9.182;2022-11-20T11:13:49;97334.84;;;2.66;100.00
38852;BME280;24605;50.092;9.182;2022-11-20T11:16:20;97345.91;;;2.78;100.00
38852;BME280;24605;50.092;9.182;2022-11-20T11:18:49;97321.66;;;2.70;100.00
38852;BME280;24605;50.092;9.182;2022-11-20T11:21:21;97347.56;;;2.89;100.00
38852;BME280;24605;50.092;9.182;2022-11-20T11:23:57;97340.72;;;2.78;100.00
38852;BME280;24605;50.092;9.182;2022-11-20T11:26:25;97331.75;;;2.82;100.00
38852;BME280;24605;50.092;9.182;2022-11-20T11:28:56;97323.72;;;2.86;100.00
38852;BME280;24605;50.092;9.182;2022-11-20T11:31:24;97324.50;;;2.66;100.00
38852;BME280;24605;50.092;9.182;2022-11-20T11:33:52;97297.38;;;2.61;100.00
38852;BME280;24605;50.092;9.182;2022-11-20T11:36:29;97295.50;;;2.53;100.00
38852;BME280;24605;50.092;9.182;2022-11-20T11:38:56;97310.91;;;2.74;100.00
38852;BME280;24605;50.092;9.182;2022-11-20T11:41:23;97291.41;;;2.70;100.00
38852;BME280;24605;50.092;9.182;2022-11-20T11:43:53;97296.03;;;2.66;100.00
38852;BME280;24605;50.092;9.182;2022-11-20T11:46:39;97303.41;;;3.01;100.00
38852;BME280;24605;50.092;9.182;2022-11-20T11:49:16;97313.75;;;2.91;100.00
38852;BME280;24605;50.092;9.182;2022-11-20T11:51:56;97311.56;;;2.66;100.00
38852;BME280;24605;50.092;9.182;2022-11-20T11:54:28;97301.25;;;2.76;100.00
38852;BME280;24605;50.092;9.182;2022-11-20T11:56:59;97307.75;;;2.80;100.00
38852;BME280;24605;50.092;9.182;2022-11-20T11:59:39;97311.44;;;3.07;100.00
38852;BME280;24605;50.092;9.182;2022-11-20T12:02:18;97261.31;;;2.59;100.00
38852;BME280;24605;50.092;9.182;2022-11-20T12:04:51;97303.41;;;2.81;100.00
38852;BME280;24605;50.092;9.182;2022-11-20T12:07:30;97267.84;;;2.54;100.00
38852;BME280;24605;50.092;9.182;2022-11-20T12:10:03;97299.84;;;2.72;100.00
38852;BME280;24605;50.092;9.182;2022-11-20T12:12:32;97303.91;;;2.45;100.00
38852;BME280;24605;50.092;9.182;2022-11-20T12:15:02;97287.31;;;2.58;100.00
38852;BME280;24605;50.092;9.182;2022-11-20T12:17:30;97304.75;;;2.65;100.00
38852;BME280;24605;50.092;9.182;2022-11-20T12:19:58;97309.53;;;2.90;100.00
38852;BME280;24605;50.092;9.182;2022-11-20T12:22:33;97302.03;;;2.77;100.00
38852;BME280;24605;50.092;9.182;2022-11-20T12:25:04;97272.63;;;2.78;100.00
38852;BME280;24605;50.092;9.182;2022-11-20T12:27:52;97299.59;;;3.05;100.00
38852;BME280;24605;50.092;9.182;2022-11-20T12:30:23;97271.13;;;2.95;100.00
38852;BME280;24605;50.092;9.182;2022-11-20T12:33:15;97298.34;;;3.09;100.00
38852;BME280;24605;50.092;9.182;2022-11-20T12:35:52;97297.38;;;3.29;100.00
38852;BME280;24605;50.092;9.182;2022-11-20T12:38:39;97287.16;;;3.28;100.00
38852;BME280;24605;50.092;9.182;2022-11-20T12:41:13;97302.81;;;3.26;100.00
38852;BME280;24605;50.092;9.182;2022-11-20T12:44:04;97298.03;;;3.41;100.00
38852;BME280;24605;50.092;9.182;2022-11-20T12:47:03;97295.97;;;3.45;100.00
38852;BME280;24605;50.092;9.182;2022-11-20T12:49:44;97288.00;;;3.66;100.00
38852;BME280;24605;50.092;9.182;2022-11-20T12:52:30;97287.91;;;3.58;100.00
38852;BME280;24605;50.092;9.182;2022-11-20T12:55:20;97238.88;;;3.37;100.00
38852;BME280;24605;50.092;9.182;2022-11-20T12:57:53;97269.75;;;3.68;100.00
38852;BME280;24605;50.092;9.182;2022-11-20T13:00:22;97298.63;;;3.73;100.00
38852;BME280;24605;50.092;9.182;2022-11-20T13:03:13;97289.31;;;3.52;100.00
38852;BME280;24605;50.092;9.182;2022-11-20T13:05:46;97288.31;;;3.63;100.00
38852;BME280;24605;50.092;9.182;2022-11-20T13:08:21;97274.03;;;3.87;100.00
38852;BME280;24605;50.092;9.182;2022-11-20T13:10:54;97274.06;;;3.77;100.00